Time;durP1;ratioP1;P1;durP2;ratioP2;P2;SDS_P1;SDS_P2;PMS_P1;PMS_P2;Temp;Humidity;BMP_temperature;BMP_pressure;BME280_temperature;BME280_humidity;BME280_pressure;Samples;Min_cycle;Max_cycle;Signal;HPM_P1;HPM_P2
2023/06/07 00:00:15;;;;;;;1.52;1.30;;;;;;;23.38;44.22;100898.34;4525102;28;20147;-61
2023/06/07 00:02:26;;;;;;;1.48;1.27;;;;;;;23.41;44.17;100909.97;4526172;28;20037;-61
2023/06/07 00:04:39;;;;;;;1.80;1.20;;;;;;;23.41;44.30;100909.13;4526757;28;20033;-61
2023/06/07 00:06:56;;;;;;;1.85;1.30;;;;;;;23.38;44.38;100904.97;4525338;28;21351;-61
2023/06/07 00:09:07;;;;;;;;;;;;;;;23.40;44.18;100916.09;4527468;28;20037;-61
2023/06/07 00:11:20;;;;;;;1.85;1.42;;;;;;;23.40;44.19;100916.09;4525857;28;20620;-61
2023/06/07 00:13:31;;;;;;;1.85;1.30;;;;;;;23.36;44.33;100909.41;4493300;28;20030;-61
2023/06/07 00:15:41;;;;;;;1.70;1.20;;;;;;;23.34;44.03;100903.22;4525687;28;20041;-61
2023/06/07 00:17:52;;;;;;;1.67;1.20;;;;;;;23.37;43.75;100913.97;4525777;28;20045;-61
2023/06/07 00:20:08;;;;;;;1.50;1.33;;;;;;;23.36;44.12;100907.38;4516318;28;20631;-61
2023/06/07 00:22:19;;;;;;;1.85;1.38;;;;;;;23.39;44.34;100917.28;4525154;28;20824;-61
2023/06/07 00:24:29;;;;;;;1.40;1.17;;;;;;;23.35;44.08;100904.88;4526097;28;20037;-61
2023/06/07 00:26:40;;;;;;;2.08;1.35;;;;;;;23.36;44.18;100909.41;4510730;28;20029;-61
2023/06/07 00:28:51;;;;;;;1.88;1.30;;;;;;;23.37;44.05;100902.47;4525094;28;20033;-61
2023/06/07 00:31:01;;;;;;;1.98;1.23;;;;;;;23.37;44.31;100914.78;4524729;28;20109;-61
2023/06/07 00:33:12;;;;;;;1.58;1.20;;;;;;;23.34;44.45;100903.22;4505987;28;20105;-61
2023/06/07 00:35:22;;;;;;;2.03;1.50;;;;;;;23.35;44.00;100904.88;4526361;28;20045;-61
2023/06/07 00:37:33;;;;;;;1.23;1.13;;;;;;;23.35;44.07;100899.97;4524823;28;20064;-61
2023/06/07 00:39:43;;;;;;;1.70;1.13;;;;;;;23.36;44.17;100900.78;4525141;28;20025;-61
2023/06/07 00:41:54;;;;;;;1.92;1.13;;;;;;;23.29;43.93;100895.69;4525142;28;20523;-61
2023/06/07 00:44:05;;;;;;;1.65;1.35;;;;;;;23.35;43.44;100904.88;4527310;28;20037;-61
2023/06/07 00:46:19;;;;;;;1.55;1.40;;;;;;;23.33;43.95;100907.28;4527166;28;20029;-61
2023/06/07 00:48:31;;;;;;;1.50;1.20;;;;;;;23.32;43.78;100899.88;4526030;28;20037;-61
2023/06/07 00:50:41;;;;;;;1.42;1.20;;;;;;;23.32;43.61;100905.63;4508842;28;20052;-61
2023/06/07 00:52:52;;;;;;;1.88;1.30;;;;;;;23.32;43.51;100905.63;4507321;28;20041;-61
2023/06/07 00:55:05;;;;;;;2.08;1.30;;;;;;;23.35;43.33;100902.00;4516743;28;20021;-61
2023/06/07 00:57:16;;;;;;;1.73;1.35;;;;;;;23.33;43.06;100907.28;4527714;28;20034;-61
2023/06/07 00:59:28;;;;;;;1.60;1.30;;;;;;;23.33;43.49;100911.03;4524030;28;20038;-61
2023/06/07 01:01:44;;;;;;;1.30;1.20;;;;;;;23.34;43.20;100897.47;4518369;28;20040;-61
2023/06/07 01:03:54;;;;;;;1.98;1.35;;;;;;;23.29;43.33;100895.69;4527180;28;20091;-61
2023/06/07 01:06:05;;;;;;;1.40;1.20;;;;;;;23.16;43.40;100879.75;4512112;28;20033;-61
2023/06/07 01:08:15;;;;;;;1.63;1.30;;;;;;;23.33;43.01;100907.28;4524752;28;20040;-61
2023/06/07 01:10:26;;;;;;;2.17;1.13;;;;;;;23.32;42.57;100903.59;4525815;28;20041;-61
2023/06/07 01:12:38;;;;;;;1.83;1.23;;;;;;;23.32;43.72;100905.63;4510273;28;20105;-60
2023/06/07 01:14:49;;;;;;;1.48;1.20;;;;;;;23.31;43.48;100904.78;4525866;28;20025;-61
2023/06/07 01:17:02;;;;;;;1.48;1.25;;;;;;;23.28;43.38;100896.91;4524084;28;20037;-61
2023/06/07 01:19:18;;;;;;;1.30;1.20;;;;;;;23.29;44.46;100901.44;4507309;28;20660;-61
2023/06/07 01:21:29;;;;;;;1.83;1.40;;;;;;;23.32;44.25;100903.59;4524158;28;20596;-61
2023/06/07 01:23:41;;;;;;;1.58;1.30;;;;;;;23.30;44.47;100890.78;4523484;28;20252;-61
2023/06/07 01:25:52;;;;;;;1.70;1.30;;;;;;;23.32;44.86;100891.22;4515575;28;20973;-61
2023/06/07 01:28:05;;;;;;;1.40;1.20;;;;;;;23.30;45.48;100894.50;4524178;28;20120;-60
2023/06/07 01:30:16;;;;;;;1.63;1.30;;;;;;;23.31;45.84;100892.44;4523928;28;20041;-60
2023/06/07 01:32:27;;;;;;;1.95;1.17;;;;;;;23.32;45.77;100897.00;4523874;28;20036;-60
2023/06/07 01:34:39;;;;;;;2.17;1.50;;;;;;;23.32;45.74;100892.06;4523924;28;20034;-60
2023/06/07 01:36:50;;;;;;;1.40;1.30;;;;;;;23.29;45.96;100889.13;4523620;28;20181;-61
2023/06/07 01:39:02;;;;;;;2.10;1.40;;;;;;;23.16;45.83;100861.63;4507139;28;20037;-61
2023/06/07 01:41:13;;;;;;;1.80;1.40;;;;;;;23.31;45.87;100884.63;4516101;28;20604;-61
2023/06/07 01:43:24;;;;;;;2.20;1.38;;;;;;;23.29;46.02;100887.03;4514991;28;20040;-61
2023/06/07 01:45:37;;;;;;;1.70;1.30;;;;;;;23.31;45.99;100889.53;4517771;28;20033;-61
2023/06/07 01:47:48;;;;;;;2.03;1.30;;;;;;;23.30;45.96;100885.84;4523279;28;20037;-62
2023/06/07 01:49:59;;;;;;;1.42;1.10;;;;;;;23.32;45.83;100897.00;4507967;28;20141;-60
2023/06/07 01:52:09;;;;;;;1.60;1.25;;;;;;;23.32;45.83;100894.13;4508343;28;20029;-61
2023/06/07 01:54:20;;;;;;;1.55;1.20;;;;;;;23.24;46.01;100889.38;4523433;28;20036;-61
2023/06/07 01:56:52;;;;;;;1.80;1.33;;;;;;;23.34;46.31;100908.97;4523691;28;20424;-60
2023/06/07 01:59:08;;;;;;;1.90;1.30;;;;;;;23.34;46.19;100908.97;4504860;28;20577;-61
2023/06/07 02:01:52;;;;;;;1.30;1.20;;;;;;;23.32;46.21;100897.84;4508506;28;20044;-61
2023/06/07 02:04:10;;;;;;;1.65;1.20;;;;;;;23.31;46.16;100893.28;4524025;28;20434;-61
2023/06/07 02:06:28;;;;;;;1.42;1.23;;;;;;;23.29;46.37;100895.69;4522233;28;20048;-61
2023/06/07 02:08:45;;;;;;;1.58;1.23;;;;;;;23.32;46.16;100891.22;4515904;28;20045;-61
2023/06/07 02:10:56;;;;;;;;;;;;;;;23.34;46.54;100888.81;4525225;28;20045;-61
2023/06/07 02:13:09;;;;;;;1.90;1.38;;;;;;;23.31;46.45;100903.94;4522409;28;20034;-61
2023/06/07 02:15:21;;;;;;;1.70;1.40;;;;;;;23.30;46.11;100891.63;4523712;28;20041;-61
2023/06/07 02:17:33;;;;;;;2.17;1.40;;;;;;;23.33;45.97;100895.78;4508529;28;20459;-61
2023/06/07 02:19:43;;;;;;;2.10;1.45;;;;;;;23.29;45.43;100889.13;4516280;28;20596;-61
2023/06/07 02:21:54;;;;;;;2.22;1.50;;;;;;;23.33;45.94;100901.53;4523958;28;20033;-61
2023/06/07 02:24:08;;;;;;;1.40;1.30;;;;;;;23.32;45.98;100894.13;4513630;28;20041;-61
2023/06/07 02:26:20;;;;;;;1.40;1.30;;;;;;;23.17;46.12;100869.91;4524976;28;20040;-62
2023/06/07 02:28:30;;;;;;;1.60;1.30;;;;;;;23.24;46.40;100880.75;4515366;28;20041;-61
2023/06/07 02:30:41;;;;;;;1.50;1.25;;;;;;;23.32;46.62;100889.19;4523761;28;20033;-61
2023/06/07 02:32:54;;;;;;;1.75;1.50;;;;;;;23.33;46.51;100901.53;4514722;28;20148;-60
2023/06/07 02:35:08;;;;;;;2.53;1.40;;;;;;;23.32;46.55;100897.84;4523305;28;20030;-61
2023/06/07 02:37:18;;;;;;;1.50;1.40;;;;;;;23.30;45.64;100893.66;4516934;28;22227;-61
2023/06/07 02:39:29;;;;;;;1.40;1.30;;;;;;;23.30;46.37;100905.16;4523420;28;20038;-61
2023/06/07 02:41:39;;;;;;;1.55;1.23;;;;;;;23.31;46.21;100909.72;4523281;28;20021;-61
2023/06/07 02:43:50;;;;;;;1.65;1.30;;;;;;;23.31;45.34;100904.78;4515548;28;20103;-61
2023/06/07 02:46:00;;;;;;;1.65;1.38;;;;;;;23.30;45.36;100902.28;4509198;28;20033;-61
2023/06/07 02:48:12;;;;;;;1.67;1.50;;;;;;;23.29;45.73;100906.41;4508764;28;20038;-61
2023/06/07 02:50:23;;;;;;;2.05;1.50;;;;;;;23.31;46.02;100904.78;4514317;28;20038;-61
2023/06/07 02:52:36;;;;;;;2.03;1.40;;;;;;;23.24;45.47;100895.97;4508333;28;20033;-61
2023/06/07 02:54:48;;;;;;;2.05;1.50;;;;;;;23.29;45.76;100901.44;4523967;28;20806;-61
2023/06/07 02:56:58;;;;;;;2.08;1.40;;;;;;;23.28;45.53;100908.44;4516180;28;20052;-61
2023/06/07 02:59:08;;;;;;;1.63;1.42;;;;;;;23.26;45.12;100899.31;4509656;28;20045;-61
2023/06/07 03:01:27;;;;;;;1.77;1.25;;;;;;;23.29;45.66;100906.41;4509845;28;20144;-61
2023/06/07 03:03:38;;;;;;;1.55;1.42;;;;;;;23.30;45.79;100902.28;4517529;28;20034;-61
2023/06/07 03:05:52;;;;;;;2.45;1.42;;;;;;;23.26;45.79;100901.41;4509607;28;20044;-61
2023/06/07 03:08:05;;;;;;;1.70;1.30;;;;;;;23.27;46.16;100903.06;4518987;28;20037;-61
2023/06/07 03:10:17;;;;;;;1.42;1.30;;;;;;;23.29;46.05;100906.41;4512679;28;20061;-61
2023/06/07 03:12:27;;;;;;;1.30;1.20;;;;;;;23.25;45.76;100896.78;4510917;28;20080;-61
2023/06/07 03:14:42;;;;;;;1.40;1.30;;;;;;;23.26;45.12;100902.22;4511656;28;20034;-60
2023/06/07 03:16:56;;;;;;;1.55;1.20;;;;;;;23.30;45.18;100905.16;4502045;28;20026;-61
2023/06/07 03:19:07;;;;;;;1.23;1.10;;;;;;;23.23;45.33;100902.94;4504308;28;20961;-61
2023/06/07 03:21:17;;;;;;;1.50;1.40;;;;;;;23.28;45.35;100905.56;4526356;28;20026;-61
2023/06/07 03:23:30;;;;;;;1.85;1.40;;;;;;;23.30;45.22;100908.06;4510915;28;20034;-61
2023/06/07 03:25:41;;;;;;;2.15;1.60;;;;;;;23.27;45.55;100903.91;4494113;28;20045;-61
2023/06/07 03:27:51;;;;;;;1.92;1.25;;;;;;;23.13;45.90;100885.44;4511587;28;20581;-61
2023/06/07 03:30:08;;;;;;;;;;;;;;;23.29;45.48;100915.84;4508861;28;20018;-60
2023/06/07 03:32:23;;;;;;;1.73;1.40;;;;;;;23.23;45.71;100905.81;4517782;28;20053;-61
2023/06/07 03:34:36;;;;;;;1.67;1.20;;;;;;;23.27;45.62;100914.56;4509654;28;20037;-61
2023/06/07 03:36:48;;;;;;;1.88;1.33;;;;;;;23.27;45.28;100917.44;4516201;28;20042;-61
2023/06/07 03:39:00;;;;;;;1.70;1.30;;;;;;;23.28;45.83;100919.94;4508511;28;20029;-62
2023/06/07 03:41:12;;;;;;;1.50;1.40;;;;;;;23.28;45.62;100925.72;4524088;28;20029;-61
2023/06/07 03:43:24;;;;;;;1.90;1.40;;;;;;;23.28;45.98;100933.50;4511193;28;20042;-60
2023/06/07 03:45:34;;;;;;;1.67;1.58;;;;;;;23.26;45.85;100918.69;4524145;28;20033;-66
2023/06/07 03:47:53;;;;;;;2.67;1.50;;;;;;;23.22;45.17;100914.84;4500616;28;20029;-61
2023/06/07 03:50:05;;;;;;;2.35;1.50;;;;;;;23.24;45.25;100916.13;4510006;28;20037;-61
2023/06/07 03:52:18;;;;;;;2.20;1.63;;;;;;;23.26;45.40;100928.13;4518965;28;20662;-61
2023/06/07 03:54:30;;;;;;;1.85;1.40;;;;;;;23.26;45.17;100918.69;4516201;28;21281;-61
2023/06/07 03:56:40;;;;;;;2.13;1.55;;;;;;;23.22;45.60;100915.69;4510535;28;20042;-61
2023/06/07 03:58:54;;;;;;;2.25;1.45;;;;;;;23.25;45.40;100916.97;4500049;28;20041;-61
2023/06/07 04:01:06;;;;;;;1.70;1.40;;;;;;;23.26;45.12;100925.25;4510318;28;20096;-61
2023/06/07 04:03:17;;;;;;;1.77;1.60;;;;;;;23.25;45.47;100925.59;4505185;28;20029;-61
2023/06/07 04:05:27;;;;;;;1.60;1.30;;;;;;;23.24;45.23;100923.94;4524637;28;20034;-61
2023/06/07 04:07:38;;;;;;;1.80;1.35;;;;;;;23.25;45.23;100935.13;4506891;28;20053;-60
2023/06/07 04:09:52;;;;;;;1.33;1.23;;;;;;;23.23;45.11;100930.91;4505255;28;20034;-61
2023/06/07 04:12:03;;;;;;;1.70;1.33;;;;;;;23.23;45.02;100930.91;4509938;28;20088;-61
2023/06/07 04:14:14;;;;;;;1.85;1.45;;;;;;;23.26;44.99;100935.97;4515963;28;20021;-60
2023/06/07 04:16:24;;;;;;;1.73;1.40;;;;;;;23.23;45.50;100925.16;4515411;28;20060;-61
2023/06/07 04:18:35;;;;;;;2.42;1.50;;;;;;;23.25;45.64;100929.34;4525158;28;20037;-60
2023/06/07 04:20:45;;;;;;;1.63;1.50;;;;;;;23.25;45.23;100929.34;4516386;28;20108;-60
2023/06/07 04:22:58;;;;;;;1.90;1.60;;;;;;;23.24;45.06;100926.81;4508260;28;20643;-61
2023/06/07 04:25:09;;;;;;;1.83;1.55;;;;;;;23.21;45.43;100916.88;4512330;28;20442;-61
2023/06/07 04:27:19;;;;;;;1.42;1.33;;;;;;;23.23;45.51;100916.53;4507662;28;20040;-61
2023/06/07 04:29:33;;;;;;;1.65;1.55;;;;;;;23.24;45.33;100930.53;4500161;28;20109;-60
2023/06/07 04:31:44;;;;;;;1.92;1.60;;;;;;;23.26;45.45;100944.59;4517135;28;20029;-61
2023/06/07 04:33:57;;;;;;;1.70;1.50;;;;;;;23.25;45.43;100931.34;4508847;28;20585;-61
2023/06/07 04:36:08;;;;;;;2.20;1.58;;;;;;;23.22;45.12;100935.00;4509364;28;20847;-61
2023/06/07 04:38:25;;;;;;;2.20;1.53;;;;;;;23.24;45.39;100939.19;4518932;28;20025;-61
2023/06/07 04:40:49;;;;;;;1.85;1.40;;;;;;;23.23;45.38;100939.56;4523439;28;20041;-61
2023/06/07 04:43:05;;;;;;;3.40;1.50;;;;;;;23.23;45.80;100934.63;4510082;28;20120;-61
2023/06/07 04:45:17;;;;;;;1.90;1.50;;;;;;;23.23;45.06;100933.81;4518446;28;20773;-60
2023/06/07 04:47:28;;;;;;;1.75;1.48;;;;;;;23.11;45.31;100916.63;4512107;28;20124;-60
2023/06/07 04:49:39;;;;;;;1.50;1.40;;;;;;;23.13;45.16;100912.19;4523992;22;20041;-60
2023/06/07 04:51:51;;;;;;;2.55;1.60;;;;;;;23.18;45.35;100932.03;4535953;28;20029;-61
2023/06/07 04:54:04;;;;;;;1.70;1.42;;;;;;;23.19;45.82;100927.13;4507470;28;20030;-60
2023/06/07 04:56:19;;;;;;;2.28;1.48;;;;;;;23.24;45.81;100932.56;4525774;28;20616;-61
2023/06/07 04:58:33;;;;;;;1.80;1.30;;;;;;;23.23;45.60;100936.69;4536438;28;20033;-61
2023/06/07 05:00:47;;;;;;;2.17;1.63;;;;;;;23.19;44.75;100921.34;4540062;28;20630;-62
2023/06/07 05:03:08;;;;;;;2.13;1.60;;;;;;;23.21;45.81;100931.28;4543081;28;20048;-61
2023/06/07 05:05:20;;;;;;;1.88;1.58;;;;;;;23.23;45.60;100931.72;4538205;28;20025;-61
2023/06/07 05:07:32;;;;;;;2.20;1.60;;;;;;;23.22;46.07;100923.47;4537323;28;20052;-61
2023/06/07 05:09:43;;;;;;;1.63;1.52;;;;;;;23.22;45.99;100930.06;4537208;28;20037;-61
2023/06/07 05:11:54;;;;;;;1.77;1.40;;;;;;;23.23;45.69;100942.44;4537474;28;20037;-61
2023/06/07 05:14:06;;;;;;;2.03;1.65;;;;;;;23.21;45.21;100936.22;4527145;28;20033;-61
2023/06/07 05:16:18;;;;;;;1.70;1.40;;;;;;;23.23;46.02;100942.44;4536382;28;20045;-61
2023/06/07 05:18:30;;;;;;;1.60;1.45;;;;;;;23.21;46.10;100939.91;4524480;28;20045;-60
2023/06/07 05:20:42;;;;;;;1.77;1.60;;;;;;;23.18;46.42;100934.09;4536438;28;20033;-61
2023/06/07 05:22:53;;;;;;;1.98;1.50;;;;;;;23.23;46.47;100939.56;4552144;28;20040;-61
2023/06/07 05:25:04;;;;;;;2.40;1.70;;;;;;;23.19;46.56;100930.00;4534562;28;20021;-61
2023/06/07 05:27:15;;;;;;;1.63;1.48;;;;;;;23.16;46.56;100925.84;4535396;28;20108;-61
2023/06/07 05:29:26;;;;;;;1.75;1.50;;;;;;;23.18;46.25;100925.47;4537875;28;20785;-62
2023/06/07 05:31:36;;;;;;;1.70;1.55;;;;;;;23.21;46.72;100931.28;4556219;28;20424;-61
2023/06/07 05:33:47;;;;;;;1.92;1.67;;;;;;;23.22;47.05;100935.00;4554316;28;20052;-61
2023/06/07 05:35:59;;;;;;;2.63;1.73;;;;;;;23.21;46.32;100930.47;4536144;28;20615;-61
2023/06/07 05:38:10;;;;;;;1.48;1.38;;;;;;;23.21;46.68;100934.16;4535960;28;20128;-61
2023/06/07 05:40:21;;;;;;;2.33;1.70;;;;;;;23.21;46.34;100939.91;4525011;28;20214;-61
2023/06/07 05:42:38;;;;;;;1.48;1.38;;;;;;;23.22;47.09;100940.75;4536435;28;20139;-61
2023/06/07 05:44:50;;;;;;;2.25;1.45;;;;;;;23.21;46.56;100928.38;4535504;28;20103;-61
2023/06/07 05:47:00;;;;;;;2.20;1.70;;;;;;;23.21;45.81;100936.22;4537003;28;20059;-61
2023/06/07 05:49:11;;;;;;;2.08;1.42;;;;;;;23.20;46.73;100944.00;4535363;28;20729;-61
2023/06/07 05:51:22;;;;;;;1.80;1.48;;;;;;;23.18;47.02;100934.91;4551931;28;20590;-61
2023/06/07 05:53:33;;;;;;;2.17;1.52;;;;;;;23.16;46.15;100939.38;4555102;28;20036;-61
2023/06/07 05:55:45;;;;;;;1.70;1.60;;;;;;;23.17;46.68;100944.78;4554976;28;20104;-61
2023/06/07 05:58:00;;;;;;;2.10;1.80;;;;;;;23.19;46.30;100947.28;4554118;28;20024;-61
2023/06/07 06:00:11;;;;;;;1.85;1.55;;;;;;;23.18;46.42;100951.38;4525338;28;20040;-61
2023/06/07 06:02:28;;;;;;;1.90;1.60;;;;;;;23.18;47.08;100951.38;4554174;28;20032;-61
2023/06/07 06:04:38;;;;;;;2.63;1.52;;;;;;;23.16;46.86;100956.66;4553497;28;20091;-61
2023/06/07 06:06:49;;;;;;;2.33;1.50;;;;;;;23.15;47.21;100955.00;4553940;28;20102;-61
2023/06/07 06:08:59;;;;;;;1.48;1.38;;;;;;;23.14;47.33;100944.69;4553173;28;20040;-61
2023/06/07 06:11:11;;;;;;;1.60;1.50;;;;;;;23.20;47.45;100961.28;4554031;28;20078;-61
2023/06/07 06:13:22;;;;;;;2.53;1.75;;;;;;;23.19;46.99;100958.78;4554378;28;20040;-60
2023/06/07 06:15:32;;;;;;;1.90;1.67;;;;;;;23.19;46.97;100965.41;4553027;28;20047;-60
2023/06/07 06:17:43;;;;;;;2.20;1.77;;;;;;;23.19;46.77;100959.63;4518425;28;20033;-61
2023/06/07 06:19:53;;;;;;;1.70;1.50;;;;;;;23.16;47.16;100956.66;4536036;28;20929;-60
2023/06/07 06:22:04;;;;;;;2.78;1.65;;;;;;;23.14;47.30;100957.03;4535980;28;20075;-60
2023/06/07 06:24:14;;;;;;;2.30;1.70;;;;;;;23.18;47.43;100968.66;4536790;28;20021;-61
2023/06/07 06:26:27;;;;;;;2.25;1.60;;;;;;;23.17;47.67;100967.81;4553915;28;20044;-61
2023/06/07 06:28:38;;;;;;;1.70;1.60;;;;;;;23.18;47.53;100971.53;4552153;28;20028;-61
2023/06/07 06:30:50;;;;;;;1.92;1.60;;;;;;;23.11;47.38;100966.44;4555008;28;20060;-61
2023/06/07 06:33:00;;;;;;;2.08;1.73;;;;;;;23.17;47.65;100966.97;4553634;28;20032;-61
2023/06/07 06:35:10;;;;;;;2.25;1.75;;;;;;;23.19;47.70;100982.69;4552692;28;20595;-61
2023/06/07 06:37:21;;;;;;;1.90;1.70;;;;;;;23.14;47.62;100974.31;4534962;28;20143;-61
2023/06/07 06:39:32;;;;;;;2.10;1.60;;;;;;;23.19;47.68;100973.19;4552579;28;20603;-61
2023/06/07 06:41:43;;;;;;;2.00;1.60;;;;;;;23.19;48.21;100976.91;4552950;28;20028;-61
2023/06/07 06:44:02;;;;;;;2.65;1.60;;;;;;;23.16;47.86;100963.28;4536761;28;20035;-61
2023/06/07 06:46:12;;;;;;;2.33;1.60;;;;;;;23.17;47.87;100972.72;4524297;28;20392;-60
2023/06/07 06:48:24;;;;;;;2.60;1.85;;;;;;;23.17;47.85;100967.81;4552603;28;20127;-61
2023/06/07 06:50:35;;;;;;;1.73;1.52;;;;;;;23.19;47.28;100973.19;4553105;28;20043;-61
2023/06/07 06:52:45;;;;;;;2.55;1.67;;;;;;;23.15;47.73;100970.22;4553373;28;20555;-60
2023/06/07 06:54:56;;;;;;;2.08;1.58;;;;;;;23.17;48.00;100973.56;4551822;28;20376;-61
2023/06/07 06:57:08;;;;;;;2.30;1.73;;;;;;;23.19;47.62;100987.59;4555024;28;20071;-60
2023/06/07 06:59:18;;;;;;;2.08;1.70;;;;;;;23.18;48.19;100971.53;4554261;28;20048;-61
2023/06/07 07:01:48;;;;;;;2.08;1.60;;;;;;;23.19;47.81;100978.94;4555060;28;20403;-61
2023/06/07 07:03:58;;;;;;;2.22;1.90;;;;;;;23.14;47.86;100979.22;4554480;28;20142;-61
2023/06/07 07:06:08;;;;;;;2.20;1.80;;;;;;;23.14;47.62;100982.13;4553040;28;20628;-61
2023/06/07 07:08:19;;;;;;;2.28;2.00;;;;;;;23.16;47.94;100985.47;4553253;28;20036;-61
2023/06/07 07:10:30;;;;;;;2.65;1.90;;;;;;;23.16;48.03;100989.19;4552465;28;20047;-61
2023/06/07 07:12:41;;;;;;;1.90;1.58;;;;;;;23.15;48.65;100983.81;4535379;28;20024;-61
2023/06/07 07:14:52;;;;;;;3.00;1.90;;;;;;;23.18;47.83;100991.69;4535227;28;20082;-61
2023/06/07 07:17:03;;;;;;;2.33;1.73;;;;;;;23.16;48.20;100988.34;4551211;28;20042;-61
2023/06/07 07:19:13;;;;;;;2.65;1.85;;;;;;;23.14;48.24;100982.97;4552094;28;20025;-61
2023/06/07 07:21:26;;;;;;;2.22;1.90;;;;;;;23.18;48.09;100991.69;4551476;28;20071;-61
2023/06/07 07:23:36;;;;;;;1.83;1.67;;;;;;;23.01;48.55;100966.16;4533122;28;20136;-61
2023/06/07 07:26:40;;;;;;;2.78;2.13;;;;;;;23.18;48.40;101001.16;4552736;28;20150;-62
2023/06/07 07:29:41;;;;;;;2.30;2.05;;;;;;;23.18;48.13;100988.81;4552135;28;20028;-61
2023/06/07 07:31:51;;;;;;;2.42;2.10;;;;;;;23.16;48.61;100994.94;4534615;28;20033;-61
2023/06/07 07:34:03;;;;;;;3.20;2.03;;;;;;;23.19;49.02;100999.94;4543421;28;20493;-61
2023/06/07 07:36:44;;;;;;;2.33;1.90;;;;;;;23.19;48.91;101001.97;4553725;28;20116;-61
2023/06/07 07:38:55;;;;;;;2.92;2.10;;;;;;;23.18;49.13;101004.03;4553662;28;20648;-61
2023/06/07 07:41:24;;;;;;;2.35;1.90;;;;;;;23.17;48.84;100999.47;4553687;28;20041;-61
2023/06/07 07:43:35;;;;;;;2.70;2.20;;;;;;;23.17;48.71;101007.28;4533797;28;20037;-61
2023/06/07 07:45:51;;;;;;;2.60;2.00;;;;;;;23.16;48.68;101002.75;4552598;28;20597;-60
2023/06/07 07:48:02;;;;;;;3.17;1.90;;;;;;;23.18;48.71;101004.03;4526714;28;20377;-61
2023/06/07 07:50:15;;;;;;;2.95;1.95;;;;;;;23.19;48.64;101004.88;4554308;28;20033;-60
2023/06/07 07:52:41;;;;;;;2.53;1.90;;;;;;;23.18;48.72;101004.03;4556337;28;20029;-60
2023/06/07 07:54:51;;;;;;;2.42;2.00;;;;;;;23.19;48.32;101008.59;4554103;28;20033;-61
2023/06/07 07:57:02;;;;;;;2.78;2.08;;;;;;;23.16;48.81;100994.09;4554667;28;20041;-60
2023/06/07 07:59:31;;;;;;;1.95;1.70;;;;;;;23.19;48.47;101004.88;4555871;28;20059;-61
2023/06/07 08:01:41;;;;;;;2.60;1.77;;;;;;;23.16;48.66;100999.84;4555652;28;20040;-61
2023/06/07 08:03:52;;;;;;;2.15;1.80;;;;;;;23.20;48.48;101010.25;4554049;28;20037;-61
2023/06/07 08:06:03;;;;;;;2.10;1.90;;;;;;;23.15;48.93;101001.91;4555226;28;20039;-61
2023/06/07 08:08:16;;;;;;;1.77;1.67;;;;;;;23.18;49.26;101006.09;4556684;28;20036;-61
2023/06/07 08:10:27;;;;;;;2.40;2.08;;;;;;;23.15;49.20;101001.09;4554551;28;21399;-60
2023/06/07 08:12:37;;;;;;;2.85;2.10;;;;;;;23.17;49.08;101001.53;4557058;28;20037;-61
2023/06/07 08:14:47;;;;;;;2.10;1.90;;;;;;;23.20;48.96;101007.38;4537817;28;20148;-61
2023/06/07 08:16:58;;;;;;;2.55;2.20;;;;;;;23.21;48.63;101008.22;4556001;28;20041;-61
2023/06/07 08:19:10;;;;;;;2.40;2.20;;;;;;;23.19;49.31;101016.38;4552278;28;20039;-61
2023/06/07 08:21:20;;;;;;;2.42;1.90;;;;;;;23.22;50.08;101010.72;4536624;28;20663;-61
2023/06/07 08:23:30;;;;;;;2.17;1.77;;;;;;;23.21;49.56;101009.03;4554322;28;20806;-61
2023/06/07 08:25:41;;;;;;;2.30;2.10;;;;;;;23.21;49.45;101003.28;4554425;28;20025;-61
2023/06/07 08:27:51;;;;;;;2.50;2.10;;;;;;;23.22;49.46;101004.13;4551872;28;20940;-62
2023/06/07 08:30:02;;;;;;;2.92;2.00;;;;;;;23.23;49.53;101005.81;4555333;28;20166;-61
2023/06/07 08:32:13;;;;;;;3.15;2.25;;;;;;;23.24;49.98;101001.69;4553950;28;20036;-61
2023/06/07 08:34:27;;;;;;;2.60;2.20;;;;;;;23.23;49.47;101000.03;4526397;28;20112;-61
2023/06/07 08:36:39;;;;;;;2.40;2.10;;;;;;;23.23;49.37;101002.91;4554427;28;20599;-61
2023/06/07 08:38:50;;;;;;;2.50;1.80;;;;;;;23.24;49.42;100998.81;4555484;28;20021;-60
2023/06/07 08:41:00;;;;;;;3.15;2.10;;;;;;;23.22;49.31;100998.34;4554976;28;20033;-61
2023/06/07 08:43:11;;;;;;;2.88;2.17;;;;;;;23.22;49.17;101001.22;4555778;28;20060;-61
2023/06/07 08:45:21;;;;;;;3.83;2.20;;;;;;;23.22;49.17;101001.22;4554600;28;20071;-60
2023/06/07 08:47:33;;;;;;;3.47;2.15;;;;;;;23.25;49.51;101003.34;4555239;28;20052;-61
2023/06/07 08:49:48;;;;;;;2.70;2.30;;;;;;;23.24;49.17;100998.81;4554301;28;20036;-61
2023/06/07 08:52:02;;;;;;;3.10;2.40;;;;;;;23.24;49.07;101004.59;4553423;28;20032;-61
2023/06/07 08:54:18;;;;;;;2.70;2.20;;;;;;;23.25;49.45;101006.25;4536398;28;20041;-61
2023/06/07 08:56:31;;;;;;;2.87;2.10;;;;;;;23.22;49.94;100998.34;4554632;28;20686;-61
2023/06/07 08:58:42;;;;;;;2.67;2.20;;;;;;;23.24;49.78;101002.53;4554422;28;20039;-60
2023/06/07 09:00:53;;;;;;;3.47;2.33;;;;;;;23.25;49.98;101003.34;4554573;28;20039;-61
2023/06/07 09:03:03;;;;;;;2.83;2.40;;;;;;;23.20;50.11;101007.38;4555279;28;20543;-60
2023/06/07 09:05:14;;;;;;;2.88;2.35;;;;;;;23.24;50.01;101010.34;4555908;28;20036;-59
2023/06/07 09:07:24;;;;;;;2.85;2.28;;;;;;;23.22;49.14;101004.13;4553111;28;20040;-60
2023/06/07 09:09:39;;;;;;;2.42;2.10;;;;;;;23.24;49.74;101008.31;4536601;28;20040;-60
2023/06/07 09:11:51;;;;;;;2.50;2.30;;;;;;;23.25;49.58;101003.34;4553909;28;20036;-60
2023/06/07 09:14:02;;;;;;;2.90;2.20;;;;;;;23.24;49.15;100998.81;4537516;28;20079;-59
2023/06/07 09:16:12;;;;;;;2.70;2.22;;;;;;;23.22;49.63;101001.22;4555046;28;20094;-60
2023/06/07 09:18:22;;;;;;;2.63;2.10;;;;;;;23.24;49.70;100993.91;4553569;28;20068;-60
2023/06/07 09:20:33;;;;;;;3.60;2.30;;;;;;;23.24;49.86;101007.47;4554641;28;20948;-60
2023/06/07 09:22:44;;;;;;;3.45;2.78;;;;;;;23.19;50.05;100988.44;4554200;28;20052;-59
2023/06/07 09:24:54;;;;;;;3.33;2.50;;;;;;;23.22;50.22;100998.34;4554423;28;20040;-59
2023/06/07 09:27:05;;;;;;;2.42;2.20;;;;;;;23.25;49.95;100997.59;4555160;28;20090;-60
2023/06/07 09:29:15;;;;;;;2.35;2.15;;;;;;;23.23;50.02;100997.16;4537247;28;20047;-59
2023/06/07 09:31:32;;;;;;;2.40;2.20;;;;;;;23.22;50.17;100992.59;4553752;28;20094;-59
2023/06/07 09:33:44;;;;;;;2.60;2.33;;;;;;;23.25;50.68;100997.59;4554023;28;20028;-60
2023/06/07 09:36:05;;;;;;;3.10;2.55;;;;;;;23.25;50.63;100997.59;4554382;28;20037;-60
2023/06/07 09:38:25;;;;;;;2.58;2.30;;;;;;;23.24;51.25;100993.06;4553817;28;20047;-59
2023/06/07 09:40:36;;;;;;;2.80;2.53;;;;;;;23.26;51.49;100999.31;4552650;28;20040;-60
2023/06/07 09:42:57;;;;;;;2.72;2.40;;;;;;;23.25;51.35;100994.72;4554454;28;20037;-60
2023/06/07 09:45:14;;;;;;;3.00;2.60;;;;;;;23.25;51.48;101003.34;4552957;28;20516;-60
2023/06/07 09:47:25;;;;;;;3.25;2.75;;;;;;;23.23;51.12;100995.09;4536096;28;20523;-61
2023/06/07 09:49:37;;;;;;;3.20;2.45;;;;;;;23.22;51.57;100998.34;4525513;28;20029;-60
2023/06/07 09:51:51;;;;;;;2.70;2.50;;;;;;;23.22;52.21;101004.97;4552608;28;20119;-61
2023/06/07 09:54:01;;;;;;;3.30;2.78;;;;;;;23.21;51.45;100999.56;4553160;28;20040;-59
2023/06/07 09:56:20;;;;;;;3.20;2.60;;;;;;;23.23;51.66;101002.91;4555006;28;20080;-60
2023/06/07 09:58:30;;;;;;;3.40;2.80;;;;;;;23.24;51.94;101004.59;4537204;28;20132;-61
2023/06/07 10:00:42;;;;;;;3.25;2.65;;;;;;;23.25;51.61;101006.25;4554299;28;20187;-61
2023/06/07 10:03:05;;;;;;;2.90;2.60;;;;;;;23.26;51.66;101010.84;4554817;28;20037;-60
2023/06/07 10:05:16;;;;;;;2.90;2.60;;;;;;;23.18;51.76;101000.31;4554053;28;20044;-61
2023/06/07 10:07:41;;;;;;;3.30;2.58;;;;;;;23.25;51.86;100998.47;4553283;28;20572;-63
2023/06/07 10:12:51;;;;;;;2.45;2.25;;;;;;;23.26;51.86;100999.31;4525542;28;20032;-61
2023/06/07 10:15:03;;;;;;;2.50;2.30;;;;;;;23.25;51.74;100997.59;4552667;28;20031;-63
2023/06/07 10:17:15;;;;;;;2.90;2.55;;;;;;;23.26;51.56;100999.31;4553186;28;20041;-61
2023/06/07 10:19:41;;;;;;;3.05;2.30;;;;;;;23.25;51.87;100998.47;4553315;28;20605;-59
2023/06/07 10:21:55;;;;;;;2.95;2.60;;;;;;;23.23;52.46;100991.41;4553141;28;20628;-61